createdAt,value
2022-08-17T00:07:39.071Z,4.93
2022-08-17T00:17:41.268Z,4.70
2022-08-17T00:27:42.832Z,4.83
2022-08-17T00:37:44.406Z,5.07
2022-08-17T00:47:46.880Z,4.90
2022-08-17T00:57:55.179Z,5.13
2022-08-17T01:08:00.027Z,5.07
2022-08-17T01:18:02.540Z,4.63
2022-08-17T01:28:04.419Z,4.90
2022-08-17T01:38:06.798Z,4.80
2022-08-17T01:48:08.440Z,5.40
2022-08-17T01:58:10.130Z,5.80
2022-08-17T02:08:19.832Z,5.30
2022-08-17T02:18:21.817Z,4.45
2022-08-17T02:28:23.416Z,5.27
2022-08-17T02:38:24.985Z,4.40
2022-08-17T02:48:31.206Z,5.23
2022-08-17T02:58:34.499Z,5.30
2022-08-17T03:08:37.408Z,5.03
2022-08-17T03:18:38.962Z,5.00
2022-08-17T03:28:40.471Z,4.53
2022-08-17T03:38:42.072Z,3.73
2022-08-17T03:48:44.423Z,5.60
2022-08-17T03:58:46.443Z,4.85
2022-08-17T04:08:47.964Z,4.43
2022-08-17T04:18:49.471Z,4.40
2022-08-17T04:28:51.812Z,4.63
2022-08-17T04:38:53.340Z,4.20
2022-08-17T04:48:57.034Z,4.43
2022-08-17T04:59:03.056Z,4.53
2022-08-17T05:09:05.195Z,4.90
2022-08-17T05:19:06.745Z,4.60
2022-08-17T05:29:08.270Z,4.80
2022-08-17T05:39:13.429Z,6.03
2022-08-17T05:49:25.095Z,6.30
2022-08-17T06:00:10.046Z,5.90
2022-08-17T06:10:32.940Z,9.27
2022-08-17T06:21:01.603Z,8.63
2022-08-17T06:31:11.825Z,8.82
2022-08-17T06:41:22.271Z,8.63
2022-08-17T06:51:32.552Z,8.53
2022-08-17T07:01:38.344Z,9.40
2022-08-17T07:11:49.042Z,9.27
2022-08-17T07:22:06.992Z,9.00
2022-08-17T07:32:11.029Z,10.37
2022-08-17T07:42:12.652Z,9.57
2022-08-17T07:52:51.496Z,11.17
2022-08-17T08:03:11.231Z,14.03
2022-08-17T08:13:25.332Z,14.05
2022-08-17T08:23:29.576Z,16.17
2022-08-17T08:33:31.106Z,16.63
2022-08-17T08:43:57.532Z,15.37
2022-08-17T08:54:12.222Z,14.10
2022-08-17T09:04:26.615Z,15.55
2022-08-17T09:14:47.121Z,13.47
2022-08-17T09:25:02.248Z,13.50
2022-08-17T09:35:20.863Z,12.47
2022-08-17T09:45:37.840Z,11.20
2022-08-17T09:55:57.785Z,12.07
2022-08-17T10:06:06.953Z,11.50
2022-08-17T10:16:25.518Z,11.20
2022-08-17T10:26:46.275Z,11.57
2022-08-17T10:37:19.284Z,11.33
2022-08-17T10:47:20.802Z,11.25
2022-08-17T10:57:31.470Z,10.57
2022-08-17T11:08:02.792Z,10.70
2022-08-17T11:18:30.199Z,9.67
2022-08-17T11:28:34.841Z,8.80
2022-08-17T11:38:51.927Z,10.32
2022-08-17T11:49:02.717Z,9.47
2022-08-17T11:59:30.205Z,8.77
2022-08-17T12:09:33.949Z,7.67
2022-08-17T12:19:37.214Z,7.17
2022-08-17T12:29:43.577Z,7.43
2022-08-17T12:40:03.406Z,6.60
2022-08-17T12:50:29.532Z,6.47
2022-08-17T13:00:37.708Z,6.90
2022-08-17T13:10:39.389Z,6.20
2022-08-17T13:20:50.556Z,5.78
2022-08-17T13:30:52.275Z,5.60
2022-08-17T13:40:53.916Z,6.03
2022-08-17T13:50:55.473Z,4.83
2022-08-17T14:00:57.255Z,6.17
2022-08-17T14:10:59.406Z,6.55
2022-08-17T14:21:00.949Z,6.00
2022-08-17T14:31:02.514Z,5.57
2022-08-17T14:41:04.876Z,5.93
2022-08-17T14:51:06.918Z,6.20
2022-08-17T15:01:14.362Z,6.38
2022-08-17T15:11:17.080Z,4.77
2022-08-17T15:21:18.857Z,5.50
2022-08-17T15:31:20.385Z,5.33
2022-08-17T15:41:34.185Z,5.20
2022-08-17T15:51:35.986Z,5.60
2022-08-17T16:03:01.687Z,5.87
2022-08-17T16:12:10.389Z,6.23
2022-08-17T16:22:13.058Z,9.30
2022-08-17T16:32:20.346Z,9.03
2022-08-17T16:42:35.799Z,10.40
2022-08-17T16:52:37.673Z,14.30
2022-08-17T17:02:46.655Z,16.70
2022-08-17T17:13:03.095Z,6.97
2022-08-17T17:23:24.370Z,4.33
2022-08-17T17:33:35.607Z,4.45
2022-08-17T17:43:40.342Z,4.00
2022-08-17T17:54:04.642Z,3.00
2022-08-17T18:04:31.574Z,3.33
2022-08-17T18:14:52.004Z,4.07
2022-08-17T18:24:55.081Z,3.95
2022-08-17T18:35:08.828Z,4.70
2022-08-17T18:45:10.340Z,4.73
2022-08-17T18:55:23.244Z,4.67
2022-08-17T19:05:36.421Z,5.07
2022-08-17T19:16:14.424Z,4.88
2022-08-17T19:26:54.479Z,4.23
2022-08-17T19:37:09.783Z,4.60
2022-08-17T19:47:43.204Z,5.10
2022-08-17T19:58:08.250Z,3.63
2022-08-17T20:08:17.779Z,4.18
2022-08-17T20:18:44.044Z,5.43
2022-08-17T20:29:13.872Z,4.60
2022-08-17T20:39:31.791Z,4.80
2022-08-17T20:49:47.365Z,5.47
2022-08-17T20:59:48.848Z,4.60
2022-08-17T21:09:51.078Z,5.07
2022-08-17T21:20:16.851Z,4.60
2022-08-17T21:30:45.063Z,5.10
2022-08-17T21:40:50.707Z,4.60
2022-08-17T21:51:16.290Z,5.88
2022-08-17T22:01:50.614Z,6.67
2022-08-17T22:11:58.381Z,5.60
2022-08-17T22:22:37.432Z,6.07
2022-08-17T22:32:44.429Z,5.97
2022-08-17T22:42:47.409Z,6.07
2022-08-17T22:52:56.468Z,7.00
2022-08-17T23:03:08.439Z,6.10
2022-08-17T23:13:13.191Z,6.70
2022-08-17T23:23:15.051Z,7.13
2022-08-17T23:33:28.061Z,7.15
2022-08-17T23:43:29.681Z,6.67
2022-08-17T23:53:34.305Z,7.57
